Milan, Ohio
Current Conditions -  °F | °C
As of 1:13 AM on Friday 19 Dec 2014 (Local Time) from KPCW Reporting Station
Overcast Overcast  
Wind Chill: 25°   Ceiling: 1500
Heat Index: 32°   Visibility: 8mi
Dew Point: 28°   Wind: 8mph
Humidity: 87%   Direction: 270°W
Pressure: 30.18"   Gusts: NA
Location:  41.3°N, 82.61°W
Report Text: KPCW 190613Z AUTO 27007KT 8SM FEW010 BKN015 OVC035 00/M02 A3018 RMK AO2 $
Loading
Personal Weather Stations






























Interactive Weather Map New forecast layout! Learn more

10-Day Weather Forecast

Advertisements
Track Severe Weather on mobile